This is the latest recevied weather packets stored in our database for station/object IZ5MMH-1. If no packets are shown the sender has not sent any weather packets the latest 10 day(s).
| Time | Temp. | Humidity | Pressure | Rain* | Wind** | Luminosity | Snow |
|---|---|---|---|---|---|---|---|
| 1787812492 | 28.33° C | 53% | 1017 hPa | - | - | - | - |
| 1787811891 | 27.78° C | 56% | 1017.2 hPa | - | - | - | - |
| 1787811291 | 27.22° C | 58% | 1017.2 hPa | - | - | - | - |
| 1787810691 | 26.67° C | 65% | 1017.3 hPa | - | - | - | - |
| 1787810091 | 25.56° C | 68% | 1017.5 hPa | - | - | - | - |
| 1787809491 | 24.44° C | 69% | 1017.5 hPa | - | - | - | - |
| 1787808891 | 23.89° C | 71% | 1017.3 hPa | - | - | - | - |
| 1787808292 | 23.33° C | 73% | 1017 hPa | - | - | - | - |
| 1787807691 | 22.78° C | 73% | 1016.8 hPa | - | - | - | - |
| 1787807091 | 22.78° C | 74% | 1016.8 hPa | - | - | - | - |
| 1787806490 | 22.78° C | 72% | 1016.8 hPa | - | - | - | - |
| 1787805891 | 22.78° C | 75% | 1016.9 hPa | - | - | - | - |
| 1787805290 | 22.22° C | 73% | 1016.8 hPa | - | - | - | - |
| 1787804690 | 22.22° C | 74% | 1016.7 hPa | - | - | - | - |
| 1787804090 | 22.22° C | 73% | 1016.8 hPa | - | - | - | - |
| 1787803492 | 22.78° C | 70% | 1016.8 hPa | - | - | - | - |
| 1787802891 | 22.78° C | 69% | 1016.8 hPa | - | - | - | - |
| 1787802294 | 22.78° C | 71% | 1016.5 hPa | - | - | - | - |
| 1787801691 | 22.78° C | 70% | 1016.6 hPa | - | - | - | - |
| 1787801091 | 22.78° C | 71% | 1016.4 hPa | - | - | - | - |
| 1787800490 | 22.78° C | 71% | 1016.4 hPa | - | - | - | - |
| 1787799890 | 22.78° C | 70% | 1016.5 hPa | - | - | - | - |
| 1787799291 | 22.78° C | 69% | 1016.7 hPa | - | - | - | - |
| 1787798690 | 22.78° C | 69% | 1016.5 hPa | - | - | - | - |
| 1787798090 | 22.78° C | 69% | 1016.5 hPa | - | - | - | - |
* Rain since midnight (hover to see other rain measurements)
** Current wind speed in m/s (hover to see current wind gust speed)